createdAt,value
2022-08-09T00:01:03.138Z,10.27
2022-08-09T00:04:05.954Z,9.20
2022-08-09T00:06:22.741Z,13.55
2022-08-09T00:08:52.396Z,8.88
2022-08-09T00:11:27.752Z,9.75
2022-08-09T00:14:19.382Z,11.52
2022-08-09T00:16:57.973Z,10.43
2022-08-09T00:19:27.821Z,6.40
2022-08-09T00:21:57.069Z,11.18
2022-08-09T00:24:27.235Z,9.13
2022-08-09T00:26:57.590Z,8.45
2022-08-09T00:30:10.049Z,9.45
2022-08-09T00:32:26.524Z,8.77
2022-08-09T00:34:58.749Z,8.70
2022-08-09T00:37:32.349Z,7.53
2022-08-09T00:40:12.257Z,7.68
2022-08-09T00:44:14.429Z,11.25
2022-08-09T00:45:34.902Z,12.95
2022-08-09T00:48:06.230Z,11.15
2022-08-09T00:50:37.892Z,9.27
2022-08-09T00:53:10.166Z,9.73
2022-08-09T00:56:04.807Z,7.63
2022-08-09T00:58:31.632Z,10.88
2022-08-09T01:01:00.736Z,8.02
2022-08-09T01:03:46.554Z,8.90
2022-08-09T01:06:25.568Z,8.07
2022-08-09T01:09:13.743Z,10.35
2022-08-09T01:11:55.484Z,9.30
2022-08-09T01:14:30.602Z,8.68
2022-08-09T01:17:04.956Z,11.20
2022-08-09T01:20:02.437Z,8.75
2022-08-09T01:23:00.086Z,10.60
2022-08-09T01:26:02.272Z,8.90
2022-08-09T01:28:32.999Z,11.27
2022-08-09T01:31:06.121Z,11.45
2022-08-09T01:33:39.853Z,8.95
2022-08-09T01:36:13.521Z,10.48
2022-08-09T01:38:50.575Z,10.27
2022-08-09T01:41:26.073Z,9.93
2022-08-09T01:44:00.408Z,10.40
2022-08-09T01:46:31.553Z,10.13
2022-08-09T01:49:10.309Z,10.60
2022-08-09T01:51:54.360Z,9.63
2022-08-09T01:54:27.107Z,8.60
2022-08-09T01:57:04.176Z,10.65
2022-08-09T01:59:40.939Z,9.27
2022-08-09T02:02:21.857Z,9.63
2022-08-09T02:04:51.921Z,8.30
2022-08-09T02:08:40.185Z,12.10
2022-08-09T02:10:18.202Z,9.57
2022-08-09T02:13:01.870Z,9.07
2022-08-09T02:15:49.639Z,7.82
2022-08-09T02:18:23.784Z,10.77
2022-08-09T02:21:03.957Z,8.32
2022-08-09T02:23:43.118Z,9.18
2022-08-09T02:26:27.244Z,11.48
2022-08-09T02:28:59.561Z,11.35
2022-08-09T02:31:35.665Z,8.02
2022-08-09T02:34:13.749Z,11.07
2022-08-09T02:36:58.554Z,11.15
2022-08-09T02:39:33.722Z,8.90
2022-08-09T02:42:13.151Z,7.78
2022-08-09T02:44:44.870Z,8.23
2022-08-09T02:47:16.787Z,8.35
2022-08-09T02:49:55.401Z,7.97
2022-08-09T02:52:48.587Z,8.52
2022-08-09T02:55:46.221Z,9.15
2022-08-09T02:58:35.966Z,11.73
2022-08-09T03:01:10.620Z,7.85
2022-08-09T03:04:17.131Z,8.10
2022-08-09T03:06:50.282Z,7.93
2022-08-09T03:09:26.924Z,6.95
2022-08-09T03:12:11.378Z,7.85
2022-08-09T03:14:45.744Z,12.68
2022-08-09T03:17:16.589Z,10.38
2022-08-09T03:20:03.011Z,8.75
2022-08-09T03:22:41.855Z,7.13
2022-08-09T03:25:26.446Z,10.82
2022-08-09T03:28:11.169Z,7.80
2022-08-09T03:30:40.360Z,12.80
2022-08-09T03:33:18.507Z,10.85
2022-08-09T03:36:15.840Z,8.25
2022-08-09T03:38:48.670Z,6.97
2022-08-09T03:41:29.928Z,9.40
2022-08-09T03:44:07.936Z,7.30
2022-08-09T03:46:38.108Z,9.18
2022-08-09T03:49:09.614Z,7.32
2022-08-09T03:51:57.089Z,7.45
2022-08-09T03:54:31.781Z,7.22
2022-08-09T03:57:18.163Z,7.55
2022-08-09T03:59:55.056Z,10.02
2022-08-09T04:02:27.623Z,7.72
2022-08-09T04:04:58.906Z,9.85
2022-08-09T04:07:46.991Z,6.25
2022-08-09T04:10:20.330Z,6.28
2022-08-09T04:12:51.567Z,9.60
2022-08-09T04:15:39.083Z,8.02
2022-08-09T04:18:16.663Z,9.52
2022-08-09T04:20:47.880Z,8.73
2022-08-09T04:23:18.000Z,6.82
2022-08-09T04:25:53.063Z,7.38
2022-08-09T04:28:33.761Z,9.05
2022-08-09T04:31:09.311Z,10.20
2022-08-09T04:33:51.684Z,6.00
2022-08-09T04:36:26.127Z,6.93
2022-08-09T04:38:57.505Z,7.05
2022-08-09T04:41:32.334Z,8.27
2022-08-09T04:44:05.962Z,7.72
2022-08-09T04:46:58.987Z,6.30
2022-08-09T04:52:45.654Z,7.97
2022-08-09T04:55:15.599Z,11.10
2022-08-09T04:57:54.229Z,7.95
2022-08-09T05:01:28.104Z,5.78
2022-08-09T05:03:59.229Z,7.22
2022-08-09T05:06:35.318Z,8.70
2022-08-09T05:09:04.281Z,5.93
2022-08-09T05:11:35.959Z,5.88
2022-08-09T05:14:10.099Z,7.15
2022-08-09T05:17:01.443Z,5.28
2022-08-09T05:19:31.775Z,7.15
2022-08-09T05:22:43.950Z,6.93
2022-08-09T05:25:17.083Z,4.80
2022-08-09T05:30:49.256Z,6.38
2022-08-09T05:33:32.928Z,5.07
2022-08-09T05:36:19.129Z,6.40
2022-08-09T05:38:58.268Z,3.80
2022-08-09T05:41:27.405Z,4.75
2022-08-09T05:44:04.262Z,6.38
2022-08-09T05:47:13.315Z,7.97
2022-08-09T05:50:32.426Z,3.10
2022-08-09T05:53:32.530Z,9.35
2022-08-09T05:56:16.262Z,4.28
2022-08-09T05:58:52.077Z,5.00
2022-08-09T06:01:24.857Z,9.52
2022-08-09T06:04:17.122Z,5.78
2022-08-09T06:07:04.735Z,9.25
2022-08-09T06:10:15.873Z,8.57
2022-08-09T06:13:18.702Z,6.82
2022-08-09T06:15:51.243Z,6.35
2022-08-09T06:18:41.728Z,5.03
2022-08-09T06:21:26.480Z,4.93
2022-08-09T06:24:12.211Z,5.82
2022-08-09T06:26:45.402Z,5.85
2022-08-09T06:29:22.955Z,6.60
2022-08-09T06:32:17.269Z,4.40
2022-08-09T06:34:53.148Z,6.30
2022-08-09T06:37:28.927Z,3.83
2022-08-09T06:40:02.592Z,6.85
2022-08-09T06:42:54.559Z,6.25
2022-08-09T06:46:06.745Z,4.80
2022-08-09T06:48:30.610Z,3.63
2022-08-09T06:51:11.591Z,9.10
2022-08-09T06:53:49.962Z,7.60
2022-08-09T06:56:21.788Z,5.25
2022-08-09T07:00:54.582Z,9.18
2022-08-09T07:02:06.783Z,5.38
2022-08-09T07:04:41.981Z,6.88
2022-08-09T07:08:00.670Z,6.57
2022-08-09T07:10:32.191Z,5.47
2022-08-09T07:13:18.638Z,5.88
2022-08-09T07:16:41.781Z,4.50
2022-08-09T07:19:02.404Z,3.13
2022-08-09T07:21:57.047Z,3.58
2022-08-09T07:24:49.596Z,5.82
2022-08-09T07:27:33.830Z,6.45
2022-08-09T07:30:08.601Z,3.53
2022-08-09T07:32:48.310Z,7.47
2022-08-09T07:35:26.001Z,3.55
2022-08-09T07:38:16.609Z,8.27
2022-08-09T07:41:13.733Z,4.50
2022-08-09T07:43:56.551Z,7.80
2022-08-09T07:46:30.083Z,3.10
2022-08-09T07:49:23.918Z,5.90
2022-08-09T07:52:17.724Z,5.80
2022-08-09T07:55:08.733Z,3.53
2022-08-09T07:57:59.927Z,2.95
2022-08-09T08:00:36.404Z,4.47
2022-08-09T08:03:26.881Z,4.50
2022-08-09T08:06:10.334Z,3.58
2022-08-09T08:09:03.157Z,9.63
2022-08-09T08:12:10.047Z,5.57
2022-08-09T08:15:02.311Z,3.20
2022-08-09T08:17:54.966Z,6.47
2022-08-09T08:20:39.000Z,3.55
2022-08-09T08:23:27.231Z,3.90
2022-08-09T08:26:55.731Z,2.10
2022-08-09T08:30:20.485Z,7.22
2022-08-09T08:32:59.731Z,5.05
2022-08-09T08:35:58.398Z,2.47
2022-08-09T08:38:23.653Z,4.60
2022-08-09T08:41:06.172Z,7.18
2022-08-09T08:44:03.631Z,3.97
2022-08-09T08:47:02.689Z,5.05
2022-08-09T08:50:02.698Z,3.47
2022-08-09T08:55:23.246Z,3.92
2022-08-09T08:57:56.365Z,2.42
2022-08-09T09:00:34.256Z,1.75
2022-08-09T09:03:25.183Z,2.15
2022-08-09T09:06:09.605Z,2.67
2022-08-09T09:08:42.320Z,1.98
2022-08-09T09:11:17.368Z,2.72
2022-08-09T09:13:56.620Z,5.30
2022-08-09T09:16:31.403Z,5.10
2022-08-09T09:22:04.068Z,2.85
2022-08-09T09:24:43.639Z,2.83
2022-08-09T09:27:22.142Z,2.55
2022-08-09T09:30:34.536Z,2.75
2022-08-09T09:33:17.555Z,2.28
2022-08-09T09:36:01.680Z,5.78
2022-08-09T09:38:43.291Z,2.72
2022-08-09T09:41:33.304Z,2.58
2022-08-09T09:44:12.760Z,5.03
2022-08-09T09:46:51.293Z,3.65
2022-08-09T09:50:07.111Z,2.10
2022-08-09T09:52:52.732Z,1.77
2022-08-09T09:55:27.782Z,4.70
2022-08-09T09:58:16.557Z,2.28
2022-08-09T10:00:54.519Z,6.35
2022-08-09T10:03:57.170Z,2.55
2022-08-09T10:06:27.872Z,3.60
2022-08-09T10:09:22.097Z,2.25
2022-08-09T10:12:14.288Z,3.78
2022-08-09T10:14:48.698Z,2.80
2022-08-09T10:17:40.759Z,1.77
2022-08-09T10:20:35.425Z,2.67
2022-08-09T10:23:19.925Z,2.13
2022-08-09T10:26:08.093Z,4.70
2022-08-09T10:28:48.604Z,1.98
2022-08-09T10:34:33.614Z,2.75
2022-08-09T10:37:26.465Z,2.03
2022-08-09T10:40:02.314Z,3.03
2022-08-09T10:42:35.753Z,8.45
2022-08-09T10:45:16.667Z,6.75
2022-08-09T10:48:13.237Z,1.38
2022-08-09T10:51:13.733Z,5.65
2022-08-09T10:53:54.631Z,1.20
2022-08-09T10:56:27.232Z,1.05
2022-08-09T10:59:03.443Z,2.28
2022-08-09T11:03:27.582Z,2.65
2022-08-09T11:04:33.109Z,1.80
2022-08-09T11:08:33.185Z,1.50
2022-08-09T11:11:00.800Z,2.17
2022-08-09T11:13:49.825Z,1.88
2022-08-09T11:17:03.864Z,1.17
2022-08-09T11:20:07.804Z,0.82
2022-08-09T11:23:10.199Z,1.92
2022-08-09T11:25:54.688Z,2.85
2022-08-09T11:28:56.432Z,1.13
2022-08-09T11:32:09.164Z,1.00
2022-08-09T11:34:48.393Z,1.00
2022-08-09T11:37:40.580Z,1.10
2022-08-09T11:40:18.099Z,0.60
2022-08-09T11:42:54.517Z,4.55
2022-08-09T11:45:42.513Z,1.60
2022-08-09T11:48:31.793Z,2.08
2022-08-09T11:51:19.509Z,2.28
2022-08-09T11:54:28.152Z,1.13
2022-08-09T11:57:56.448Z,2.63
2022-08-09T12:00:35.170Z,0.80
2022-08-09T12:03:54.876Z,2.67
2022-08-09T12:06:24.672Z,0.70
2022-08-09T12:09:27.570Z,0.82
2022-08-09T12:16:48.653Z,1.27
2022-08-09T12:19:40.521Z,0.90
2022-08-09T12:22:15.121Z,3.00
2022-08-09T12:24:43.629Z,1.23
2022-08-09T12:29:11.255Z,1.83
2022-08-09T12:34:36.233Z,1.13
2022-08-09T12:37:37.836Z,1.67
2022-08-09T12:41:16.553Z,6.03
2022-08-09T12:53:52.713Z,1.80
2022-08-09T12:56:53.794Z,1.17
2022-08-09T12:59:39.688Z,2.25
2022-08-09T13:03:54.050Z,1.33
2022-08-09T13:09:55.539Z,3.08
2022-08-09T13:12:40.091Z,4.07
2022-08-09T13:15:36.259Z,2.75
2022-08-09T13:18:17.290Z,2.17
2022-08-09T13:21:04.488Z,1.75
2022-08-09T13:24:42.348Z,2.42
2022-08-09T13:30:50.715Z,3.83
2022-08-09T13:38:56.225Z,1.52
2022-08-09T13:42:38.017Z,3.45
2022-08-09T13:45:32.405Z,3.25
2022-08-09T13:56:33.838Z,4.55
2022-08-09T13:59:47.578Z,1.67
2022-08-09T14:02:25.554Z,6.60
2022-08-09T14:16:28.274Z,2.30
2022-08-09T14:59:08.631Z,2.03
2022-08-09T15:02:28.563Z,19.92
2022-08-09T15:05:01.033Z,1.63
2022-08-09T15:11:12.817Z,1.83
2022-08-09T15:14:04.450Z,0.82
2022-08-09T15:16:54.349Z,6.03
2022-08-09T15:19:59.520Z,1.95
2022-08-09T15:24:02.109Z,1.92
2022-08-09T15:34:35.126Z,13.20
2022-08-09T15:37:38.072Z,1.25
2022-08-09T15:40:31.971Z,4.85
2022-08-09T15:43:03.107Z,6.03
2022-08-09T15:46:07.576Z,4.10
2022-08-09T15:48:35.067Z,10.55
2022-08-09T15:51:30.092Z,7.15
2022-08-09T15:54:20.090Z,4.57
2022-08-09T15:57:19.002Z,6.65
2022-08-09T16:00:14.233Z,1.95
2022-08-09T16:21:56.351Z,4.70
2022-08-09T16:24:32.879Z,6.50
2022-08-09T16:27:05.187Z,5.13
2022-08-09T16:29:50.380Z,20.17
2022-08-09T16:32:33.949Z,16.27
2022-08-09T16:35:03.240Z,24.98
2022-08-09T16:37:55.229Z,21.25
2022-08-09T16:40:40.251Z,11.43
2022-08-09T16:43:12.085Z,10.63
2022-08-09T16:45:44.398Z,5.00
2022-08-09T16:48:38.012Z,9.48
2022-08-09T16:51:08.353Z,3.38
2022-08-09T16:54:09.115Z,4.28
2022-08-09T16:56:33.068Z,4.20
2022-08-09T16:59:06.733Z,8.23
2022-08-09T17:01:39.529Z,3.92
2022-08-09T17:04:21.542Z,3.28
2022-08-09T17:08:41.409Z,4.13
2022-08-09T17:09:47.062Z,3.13
2022-08-09T17:12:17.034Z,4.53
2022-08-09T17:18:16.943Z,6.60
2022-08-09T17:21:46.608Z,2.88
2022-08-09T17:24:27.317Z,5.85
2022-08-09T17:26:58.264Z,6.05
2022-08-09T17:29:31.843Z,4.40
2022-08-09T17:32:08.877Z,5.50
2022-08-09T17:35:04.174Z,4.78
2022-08-09T17:37:32.667Z,5.97
2022-08-09T17:40:25.955Z,3.63
2022-08-09T17:42:59.595Z,3.60
2022-08-09T17:46:02.696Z,1.80
2022-08-09T17:48:29.130Z,4.55
2022-08-09T17:51:06.595Z,3.53
2022-08-09T17:53:43.274Z,3.38
2022-08-09T17:56:18.330Z,4.10
2022-08-09T17:58:49.792Z,3.42
2022-08-09T18:01:22.560Z,5.00
2022-08-09T18:03:52.478Z,4.03
2022-08-09T18:06:30.753Z,2.90
2022-08-09T18:09:03.394Z,3.08
2022-08-09T18:12:05.872Z,4.10
2022-08-09T18:14:24.937Z,5.40
2022-08-09T18:16:54.570Z,4.80
2022-08-09T18:20:56.438Z,4.57
2022-08-09T18:22:17.141Z,3.50
2022-08-09T18:24:46.443Z,2.72
2022-08-09T18:27:49.207Z,5.13
2022-08-09T18:30:40.807Z,4.03
2022-08-09T18:32:55.025Z,3.65
2022-08-09T18:35:59.312Z,3.25
2022-08-09T18:38:12.571Z,3.75
2022-08-09T18:40:43.089Z,4.85
2022-08-09T18:43:13.882Z,2.67
2022-08-09T18:46:46.425Z,5.28
2022-08-09T18:48:42.473Z,4.90
2022-08-09T18:51:10.629Z,3.63
2022-08-09T18:54:01.905Z,3.28
2022-08-09T18:56:28.597Z,3.03
2022-08-09T18:58:57.658Z,6.30
2022-08-09T19:01:43.101Z,4.40
2022-08-09T19:04:11.746Z,2.55
2022-08-09T19:06:50.443Z,6.05
2022-08-09T19:09:34.035Z,6.82
2022-08-09T19:12:10.178Z,5.35
2022-08-09T19:14:39.911Z,3.88
2022-08-09T19:17:13.610Z,4.22
2022-08-09T19:19:42.269Z,3.33
2022-08-09T19:22:15.156Z,3.63
2022-08-09T19:25:07.406Z,3.88
2022-08-09T19:27:36.057Z,5.85
2022-08-09T19:30:23.105Z,3.63
2022-08-09T19:32:55.996Z,2.53
2022-08-09T19:35:28.416Z,4.03
2022-08-09T19:38:16.727Z,2.58
2022-08-09T19:40:49.803Z,3.78
2022-08-09T19:44:01.815Z,3.50
2022-08-09T19:46:14.372Z,6.50
2022-08-09T19:49:01.377Z,3.38
2022-08-09T19:51:31.395Z,2.90
2022-08-09T19:53:59.759Z,6.13
2022-08-09T19:56:29.482Z,3.10
2022-08-09T19:59:27.798Z,3.22
2022-08-09T20:02:05.269Z,2.90
2022-08-09T20:04:40.328Z,5.30
2022-08-09T20:07:15.961Z,4.82
2022-08-09T20:09:51.207Z,3.15
2022-08-09T20:12:31.838Z,4.88
2022-08-09T20:15:10.410Z,3.28
2022-08-09T20:17:57.252Z,3.70
2022-08-09T20:20:27.364Z,3.83
2022-08-09T20:22:56.316Z,3.55
2022-08-09T20:25:26.848Z,3.78
2022-08-09T20:27:55.802Z,3.80
2022-08-09T20:30:25.076Z,9.77
2022-08-09T20:33:02.732Z,2.53
2022-08-09T20:35:36.212Z,3.45
2022-08-09T20:38:22.105Z,4.45
2022-08-09T20:40:53.186Z,3.95
2022-08-09T20:43:24.640Z,5.13
2022-08-09T20:46:33.330Z,2.97
2022-08-09T20:48:45.164Z,5.65
2022-08-09T20:51:19.289Z,3.90
2022-08-09T20:53:48.712Z,3.40
2022-08-09T20:56:20.927Z,4.95
2022-08-09T20:58:54.195Z,3.30
2022-08-09T21:01:35.398Z,4.18
2022-08-09T21:05:55.077Z,5.72
2022-08-09T21:07:12.565Z,3.53
2022-08-09T21:09:55.421Z,3.20
2022-08-09T21:15:15.345Z,2.67
2022-08-09T21:18:23.351Z,5.20
2022-08-09T21:20:35.506Z,3.45
2022-08-09T21:23:09.231Z,4.95
2022-08-09T21:25:59.813Z,4.90
2022-08-09T21:28:34.811Z,3.38
2022-08-09T21:31:17.472Z,2.78
2022-08-09T21:33:52.149Z,4.05
2022-08-09T21:36:23.186Z,6.85
2022-08-09T21:38:57.311Z,4.68
2022-08-09T21:42:04.669Z,4.28
2022-08-09T21:44:33.111Z,5.20
2022-08-09T21:47:07.481Z,6.72
2022-08-09T21:49:39.656Z,3.47
2022-08-09T21:52:18.252Z,3.30
2022-08-09T21:55:02.926Z,4.00
2022-08-09T21:57:39.335Z,3.40
2022-08-09T22:00:26.821Z,4.05
2022-08-09T22:03:04.582Z,4.38
2022-08-09T22:05:37.259Z,3.35
2022-08-09T22:08:13.690Z,3.75
2022-08-09T22:11:05.129Z,3.13
2022-08-09T22:13:35.499Z,6.28
2022-08-09T22:16:07.928Z,5.88
2022-08-09T22:18:37.906Z,5.18
2022-08-09T22:21:09.936Z,5.65
2022-08-09T22:24:03.323Z,5.63
2022-08-09T22:26:38.441Z,5.80
2022-08-09T22:29:09.856Z,5.15
2022-08-09T22:31:50.662Z,4.78
2022-08-09T22:34:27.049Z,4.57
2022-08-09T22:36:56.626Z,5.53
2022-08-09T22:39:56.167Z,4.85
2022-08-09T22:42:36.423Z,2.97
2022-08-09T22:48:10.231Z,3.78
2022-08-09T22:48:18.483Z,3.85
2022-08-09T22:50:42.775Z,4.75
2022-08-09T22:53:21.502Z,6.95
2022-08-09T22:56:30.016Z,3.20
2022-08-09T22:58:40.462Z,2.50
2022-08-09T23:01:10.791Z,5.75
2022-08-09T23:04:04.112Z,4.78
2022-08-09T23:06:50.496Z,4.45
2022-08-09T23:09:17.817Z,3.72
2022-08-09T23:11:46.185Z,4.47
2022-08-09T23:14:17.694Z,3.53
2022-08-09T23:17:09.661Z,3.75
2022-08-09T23:20:06.012Z,9.35
2022-08-09T23:22:33.563Z,3.75
2022-08-09T23:25:02.068Z,4.18
2022-08-09T23:27:32.718Z,2.78
2022-08-09T23:30:02.689Z,2.72
2022-08-09T23:32:31.001Z,4.30
2022-08-09T23:35:03.285Z,3.53
2022-08-09T23:37:31.722Z,3.38
2022-08-09T23:40:01.411Z,3.03
2022-08-09T23:42:33.447Z,2.80
2022-08-09T23:45:04.185Z,4.10
2022-08-09T23:47:35.663Z,4.30
2022-08-09T23:50:06.238Z,4.38
2022-08-09T23:52:34.846Z,4.15
2022-08-09T23:55:03.580Z,2.95
2022-08-09T23:57:32.827Z,4.32
